sensor_id;sensor_type;location;lat;lon;timestamp;P1;durP1;ratioP1;P2;durP2;ratioP2
36651;SDS011;53334;51.976;20.144;2023-01-24T00:00:02;12.43;;;9.18;;
36651;SDS011;53334;51.976;20.144;2023-01-24T00:02:38;11.52;;;8.35;;
36651;SDS011;53334;51.976;20.144;2023-01-24T00:05:11;10.57;;;8.43;;
36651;SDS011;53334;51.976;20.144;2023-01-24T00:07:45;10.73;;;8.43;;
36651;SDS011;53334;51.976;20.144;2023-01-24T00:10:18;11.05;;;8.40;;
36651;SDS011;53334;51.976;20.144;2023-01-24T00:12:51;10.57;;;9.13;;
36651;SDS011;53334;51.976;20.144;2023-01-24T00:15:25;12.00;;;8.70;;
36651;SDS011;53334;51.976;20.144;2023-01-24T00:18:00;10.05;;;8.32;;
36651;SDS011;53334;51.976;20.144;2023-01-24T00:20:33;9.57;;;8.40;;
36651;SDS011;53334;51.976;20.144;2023-01-24T00:23:07;12.43;;;10.15;;
36651;SDS011;53334;51.976;20.144;2023-01-24T00:25:40;12.15;;;8.70;;
36651;SDS011;53334;51.976;20.144;2023-01-24T00:28:14;10.73;;;9.23;;
36651;SDS011;53334;51.976;20.144;2023-01-24T00:30:47;14.05;;;9.80;;
36651;SDS011;53334;51.976;20.144;2023-01-24T00:33:22;11.10;;;8.98;;
36651;SDS011;53334;51.976;20.144;2023-01-24T00:35:56;12.00;;;8.98;;
36651;SDS011;53334;51.976;20.144;2023-01-24T00:38:30;13.57;;;10.00;;
36651;SDS011;53334;51.976;20.144;2023-01-24T00:41:04;11.95;;;9.00;;
36651;SDS011;53334;51.976;20.144;2023-01-24T00:43:37;12.07;;;9.13;;
36651;SDS011;53334;51.976;20.144;2023-01-24T00:46:11;14.40;;;9.85;;
36651;SDS011;53334;51.976;20.144;2023-01-24T00:48:46;12.68;;;10.18;;
36651;SDS011;53334;51.976;20.144;2023-01-24T00:51:19;13.45;;;9.93;;
36651;SDS011;53334;51.976;20.144;2023-01-24T00:53:54;13.65;;;9.60;;
36651;SDS011;53334;51.976;20.144;2023-01-24T00:56:28;11.98;;;9.23;;
36651;SDS011;53334;51.976;20.144;2023-01-24T00:59:01;11.90;;;9.77;;
36651;SDS011;53334;51.976;20.144;2023-01-24T01:01:34;12.88;;;9.23;;
36651;SDS011;53334;51.976;20.144;2023-01-24T01:04:09;13.73;;;9.73;;
36651;SDS011;53334;51.976;20.144;2023-01-24T01:06:45;10.77;;;8.95;;
36651;SDS011;53334;51.976;20.144;2023-01-24T01:09:18;10.63;;;9.18;;
36651;SDS011;53334;51.976;20.144;2023-01-24T01:11:51;11.98;;;10.18;;
36651;SDS011;53334;51.976;20.144;2023-01-24T01:14:25;11.50;;;9.70;;
36651;SDS011;53334;51.976;20.144;2023-01-24T01:16:58;10.15;;;8.57;;
36651;SDS011;53334;51.976;20.144;2023-01-24T01:19:33;15.20;;;10.68;;
36651;SDS011;53334;51.976;20.144;2023-01-24T01:22:06;12.32;;;9.48;;
36651;SDS011;53334;51.976;20.144;2023-01-24T01:24:39;11.13;;;8.30;;
36651;SDS011;53334;51.976;20.144;2023-01-24T01:27:13;12.30;;;9.55;;
36651;SDS011;53334;51.976;20.144;2023-01-24T01:29:47;13.35;;;9.93;;
36651;SDS011;53334;51.976;20.144;2023-01-24T01:32:20;11.55;;;9.10;;
36651;SDS011;53334;51.976;20.144;2023-01-24T01:34:55;11.57;;;8.98;;
36651;SDS011;53334;51.976;20.144;2023-01-24T01:37:28;12.02;;;8.80;;
36651;SDS011;53334;51.976;20.144;2023-01-24T01:40:02;12.02;;;8.82;;
36651;SDS011;53334;51.976;20.144;2023-01-24T01:42:41;11.70;;;9.38;;
36651;SDS011;53334;51.976;20.144;2023-01-24T01:45:31;12.30;;;10.23;;
36651;SDS011;53334;51.976;20.144;2023-01-24T01:48:16;11.18;;;9.73;;
36651;SDS011;53334;51.976;20.144;2023-01-24T01:50:56;13.10;;;10.20;;
36651;SDS011;53334;51.976;20.144;2023-01-24T01:53:35;12.10;;;9.52;;
36651;SDS011;53334;51.976;20.144;2023-01-24T01:56:14;12.73;;;9.43;;
36651;SDS011;53334;51.976;20.144;2023-01-24T01:58:59;12.73;;;10.10;;
36651;SDS011;53334;51.976;20.144;2023-01-24T02:01:37;13.65;;;9.48;;
36651;SDS011;53334;51.976;20.144;2023-01-24T02:06:50;13.38;;;10.88;;
36651;SDS011;53334;51.976;20.144;2023-01-24T02:09:28;13.43;;;9.95;;
36651;SDS011;53334;51.976;20.144;2023-01-24T02:12:07;13.88;;;10.30;;
36651;SDS011;53334;51.976;20.144;2023-01-24T02:14:44;13.05;;;10.50;;
36651;SDS011;53334;51.976;20.144;2023-01-24T02:17:36;13.38;;;10.25;;
36651;SDS011;53334;51.976;20.144;2023-01-24T02:20:21;14.57;;;10.15;;
36651;SDS011;53334;51.976;20.144;2023-01-24T02:23:08;12.90;;;10.00;;
36651;SDS011;53334;51.976;20.144;2023-01-24T02:25:51;14.20;;;10.80;;
36651;SDS011;53334;51.976;20.144;2023-01-24T02:28:34;13.05;;;9.73;;
36651;SDS011;53334;51.976;20.144;2023-01-24T02:31:08;13.23;;;10.45;;
36651;SDS011;53334;51.976;20.144;2023-01-24T02:36:19;13.02;;;10.57;;
36651;SDS011;53334;51.976;20.144;2023-01-24T02:38:57;14.13;;;10.88;;
36651;SDS011;53334;51.976;20.144;2023-01-24T02:41:37;14.60;;;10.93;;
36651;SDS011;53334;51.976;20.144;2023-01-24T02:44:17;14.23;;;10.15;;
36651;SDS011;53334;51.976;20.144;2023-01-24T02:46:53;15.05;;;11.07;;
36651;SDS011;53334;51.976;20.144;2023-01-24T02:49:28;12.63;;;10.45;;
36651;SDS011;53334;51.976;20.144;2023-01-24T02:52:01;14.15;;;11.02;;
36651;SDS011;53334;51.976;20.144;2023-01-24T02:54:52;13.90;;;10.77;;
36651;SDS011;53334;51.976;20.144;2023-01-24T02:57:27;13.45;;;10.38;;
36651;SDS011;53334;51.976;20.144;2023-01-24T03:00:18;15.50;;;11.32;;
36651;SDS011;53334;51.976;20.144;2023-01-24T03:02:52;13.38;;;9.95;;
36651;SDS011;53334;51.976;20.144;2023-01-24T03:05:25;16.17;;;10.73;;
36651;SDS011;53334;51.976;20.144;2023-01-24T03:08:18;12.70;;;10.48;;
36651;SDS011;53334;51.976;20.144;2023-01-24T03:10:55;13.43;;;9.93;;
36651;SDS011;53334;51.976;20.144;2023-01-24T03:13:32;15.10;;;11.57;;
36651;SDS011;53334;51.976;20.144;2023-01-24T03:16:26;12.80;;;9.63;;
36651;SDS011;53334;51.976;20.144;2023-01-24T03:19:17;12.70;;;10.90;;
36651;SDS011;53334;51.976;20.144;2023-01-24T03:22:09;13.52;;;10.98;;
36651;SDS011;53334;51.976;20.144;2023-01-24T03:24:59;13.63;;;10.23;;
36651;SDS011;53334;51.976;20.144;2023-01-24T03:27:51;13.43;;;11.68;;
36651;SDS011;53334;51.976;20.144;2023-01-24T03:30:43;16.98;;;11.60;;
36651;SDS011;53334;51.976;20.144;2023-01-24T03:33:37;15.98;;;12.05;;
36651;SDS011;53334;51.976;20.144;2023-01-24T03:36:28;14.45;;;11.18;;
36651;SDS011;53334;51.976;20.144;2023-01-24T03:39:04;13.43;;;11.10;;
36651;SDS011;53334;51.976;20.144;2023-01-24T03:41:56;15.00;;;11.45;;
36651;SDS011;53334;51.976;20.144;2023-01-24T03:44:29;17.02;;;12.20;;
36651;SDS011;53334;51.976;20.144;2023-01-24T03:49:38;17.00;;;12.27;;
36651;SDS011;53334;51.976;20.144;2023-01-24T03:52:28;17.73;;;11.98;;
36651;SDS011;53334;51.976;20.144;2023-01-24T03:55:07;15.48;;;11.10;;
36651;SDS011;53334;51.976;20.144;2023-01-24T03:57:40;18.15;;;12.30;;
36651;SDS011;53334;51.976;20.144;2023-01-24T04:00:14;17.63;;;12.60;;
36651;SDS011;53334;51.976;20.144;2023-01-24T04:02:55;13.70;;;11.00;;
36651;SDS011;53334;51.976;20.144;2023-01-24T04:05:29;15.70;;;11.45;;
36651;SDS011;53334;51.976;20.144;2023-01-24T04:08:04;18.23;;;11.98;;
36651;SDS011;53334;51.976;20.144;2023-01-24T04:10:39;16.05;;;12.45;;
36651;SDS011;53334;51.976;20.144;2023-01-24T04:13:12;16.35;;;12.15;;
36651;SDS011;53334;51.976;20.144;2023-01-24T04:15:46;17.00;;;12.82;;
36651;SDS011;53334;51.976;20.144;2023-01-24T04:18:49;17.45;;;12.63;;
36651;SDS011;53334;51.976;20.144;2023-01-24T04:21:25;16.08;;;12.40;;
36651;SDS011;53334;51.976;20.144;2023-01-24T04:23:59;14.07;;;10.77;;
36651;SDS011;53334;51.976;20.144;2023-01-24T04:26:33;16.08;;;12.20;;
36651;SDS011;53334;51.976;20.144;2023-01-24T04:29:09;15.07;;;10.82;;
36651;SDS011;53334;51.976;20.144;2023-01-24T04:31:42;15.52;;;11.93;;
36651;SDS011;53334;51.976;20.144;2023-01-24T04:34:26;17.63;;;12.52;;
36651;SDS011;53334;51.976;20.144;2023-01-24T04:36:59;14.57;;;12.52;;
36651;SDS011;53334;51.976;20.144;2023-01-24T04:39:33;15.70;;;11.73;;
36651;SDS011;53334;51.976;20.144;2023-01-24T04:42:16;16.85;;;12.35;;
36651;SDS011;53334;51.976;20.144;2023-01-24T04:44:50;16.10;;;11.85;;
36651;SDS011;53334;51.976;20.144;2023-01-24T04:47:23;15.30;;;11.25;;
36651;SDS011;53334;51.976;20.144;2023-01-24T04:49:59;16.60;;;12.25;;
36651;SDS011;53334;51.976;20.144;2023-01-24T04:52:33;16.10;;;12.52;;
36651;SDS011;53334;51.976;20.144;2023-01-24T04:55:10;14.88;;;12.05;;
36651;SDS011;53334;51.976;20.144;2023-01-24T04:57:44;16.63;;;11.65;;
36651;SDS011;53334;51.976;20.144;2023-01-24T05:00:17;15.18;;;11.82;;
36651;SDS011;53334;51.976;20.144;2023-01-24T05:02:51;17.17;;;13.20;;
36651;SDS011;53334;51.976;20.144;2023-01-24T05:05:27;18.33;;;12.43;;
36651;SDS011;53334;51.976;20.144;2023-01-24T05:08:01;17.45;;;11.82;;
36651;SDS011;53334;51.976;20.144;2023-01-24T05:10:34;17.42;;;12.98;;
36651;SDS011;53334;51.976;20.144;2023-01-24T05:13:08;16.25;;;12.55;;
36651;SDS011;53334;51.976;20.144;2023-01-24T05:15:45;16.20;;;12.40;;
36651;SDS011;53334;51.976;20.144;2023-01-24T05:18:19;17.70;;;12.50;;
36651;SDS011;53334;51.976;20.144;2023-01-24T05:20:54;17.70;;;11.98;;
36651;SDS011;53334;51.976;20.144;2023-01-24T05:23:28;20.85;;;12.43;;
36651;SDS011;53334;51.976;20.144;2023-01-24T05:26:02;18.92;;;12.75;;
36651;SDS011;53334;51.976;20.144;2023-01-24T05:28:36;17.95;;;13.10;;
36651;SDS011;53334;51.976;20.144;2023-01-24T05:31:09;15.90;;;12.07;;
36651;SDS011;53334;51.976;20.144;2023-01-24T05:33:43;21.83;;;13.70;;
36651;SDS011;53334;51.976;20.144;2023-01-24T05:36:18;16.50;;;12.80;;
36651;SDS011;53334;51.976;20.144;2023-01-24T05:38:54;18.15;;;12.57;;
36651;SDS011;53334;51.976;20.144;2023-01-24T05:41:27;19.42;;;12.90;;
36651;SDS011;53334;51.976;20.144;2023-01-24T05:44:01;18.90;;;13.40;;
36651;SDS011;53334;51.976;20.144;2023-01-24T05:46:40;18.23;;;12.98;;
36651;SDS011;53334;51.976;20.144;2023-01-24T05:49:19;17.85;;;13.18;;
36651;SDS011;53334;51.976;20.144;2023-01-24T05:51:55;15.98;;;12.48;;
36651;SDS011;53334;51.976;20.144;2023-01-24T05:54:54;18.77;;;13.38;;
36651;SDS011;53334;51.976;20.144;2023-01-24T05:57:38;18.88;;;14.15;;
36651;SDS011;53334;51.976;20.144;2023-01-24T06:00:14;19.10;;;13.35;;
36651;SDS011;53334;51.976;20.144;2023-01-24T06:03:17;17.67;;;12.93;;
36651;SDS011;53334;51.976;20.144;2023-01-24T06:05:51;17.88;;;12.80;;
36651;SDS011;53334;51.976;20.144;2023-01-24T06:08:32;17.67;;;13.27;;
36651;SDS011;53334;51.976;20.144;2023-01-24T06:11:07;19.98;;;13.30;;
36651;SDS011;53334;51.976;20.144;2023-01-24T06:13:44;18.25;;;13.43;;
36651;SDS011;53334;51.976;20.144;2023-01-24T06:16:19;17.60;;;12.98;;
36651;SDS011;53334;51.976;20.144;2023-01-24T06:18:54;19.13;;;14.15;;
36651;SDS011;53334;51.976;20.144;2023-01-24T06:21:34;16.30;;;12.02;;
36651;SDS011;53334;51.976;20.144;2023-01-24T06:24:20;18.17;;;13.95;;
36651;SDS011;53334;51.976;20.144;2023-01-24T06:27:18;19.17;;;13.95;;
36651;SDS011;53334;51.976;20.144;2023-01-24T06:32:28;18.50;;;13.77;;
36651;SDS011;53334;51.976;20.144;2023-01-24T06:35:13;16.70;;;13.23;;
36651;SDS011;53334;51.976;20.144;2023-01-24T06:37:52;17.35;;;13.82;;
36651;SDS011;53334;51.976;20.144;2023-01-24T06:43:02;16.38;;;13.23;;
36651;SDS011;53334;51.976;20.144;2023-01-24T06:45:35;20.00;;;14.02;;
36651;SDS011;53334;51.976;20.144;2023-01-24T06:48:09;18.85;;;13.18;;
36651;SDS011;53334;51.976;20.144;2023-01-24T06:50:42;20.75;;;14.50;;
36651;SDS011;53334;51.976;20.144;2023-01-24T06:53:15;19.50;;;13.60;;
36651;SDS011;53334;51.976;20.144;2023-01-24T06:55:50;20.08;;;14.73;;
36651;SDS011;53334;51.976;20.144;2023-01-24T06:58:23;19.05;;;13.70;;
36651;SDS011;53334;51.976;20.144;2023-01-24T07:00:57;20.17;;;14.63;;
36651;SDS011;53334;51.976;20.144;2023-01-24T07:03:30;20.17;;;14.40;;
36651;SDS011;53334;51.976;20.144;2023-01-24T07:06:04;20.73;;;14.23;;
36651;SDS011;53334;51.976;20.144;2023-01-24T07:08:37;20.60;;;14.85;;
36651;SDS011;53334;51.976;20.144;2023-01-24T07:11:12;21.30;;;14.25;;
36651;SDS011;53334;51.976;20.144;2023-01-24T07:13:45;17.17;;;13.20;;
36651;SDS011;53334;51.976;20.144;2023-01-24T07:16:19;19.20;;;13.85;;
36651;SDS011;53334;51.976;20.144;2023-01-24T07:18:52;19.75;;;14.57;;
36651;SDS011;53334;51.976;20.144;2023-01-24T07:23:59;21.92;;;14.68;;
36651;SDS011;53334;51.976;20.144;2023-01-24T07:29:08;22.42;;;15.07;;
36651;SDS011;53334;51.976;20.144;2023-01-24T07:34:16;20.63;;;15.05;;
36651;SDS011;53334;51.976;20.144;2023-01-24T07:36:50;18.20;;;13.98;;
36651;SDS011;53334;51.976;20.144;2023-01-24T07:39:24;17.23;;;13.63;;
36651;SDS011;53334;51.976;20.144;2023-01-24T07:42:03;19.20;;;14.10;;
36651;SDS011;53334;51.976;20.144;2023-01-24T07:44:36;19.75;;;14.98;;
36651;SDS011;53334;51.976;20.144;2023-01-24T07:47:11;18.52;;;14.15;;
36651;SDS011;53334;51.976;20.144;2023-01-24T07:49:44;23.90;;;16.70;;
36651;SDS011;53334;51.976;20.144;2023-01-24T07:52:18;18.55;;;13.77;;
36651;SDS011;53334;51.976;20.144;2023-01-24T07:54:51;18.55;;;13.75;;
36651;SDS011;53334;51.976;20.144;2023-01-24T07:57:26;22.02;;;16.05;;
36651;SDS011;53334;51.976;20.144;2023-01-24T07:59:59;19.52;;;14.30;;
36651;SDS011;53334;51.976;20.144;2023-01-24T08:02:42;20.20;;;15.00;;
36651;SDS011;53334;51.976;20.144;2023-01-24T08:05:16;19.63;;;14.77;;
36651;SDS011;53334;51.976;20.144;2023-01-24T08:07:49;20.08;;;15.00;;
36651;SDS011;53334;51.976;20.144;2023-01-24T08:10:23;23.35;;;16.77;;
36651;SDS011;53334;51.976;20.144;2023-01-24T08:12:58;21.30;;;14.23;;
36651;SDS011;53334;51.976;20.144;2023-01-24T08:15:31;20.88;;;15.43;;
36651;SDS011;53334;51.976;20.144;2023-01-24T08:18:05;18.45;;;14.52;;
36651;SDS011;53334;51.976;20.144;2023-01-24T08:20:38;18.55;;;15.02;;
36651;SDS011;53334;51.976;20.144;2023-01-24T08:23:12;21.23;;;14.50;;
36651;SDS011;53334;51.976;20.144;2023-01-24T08:25:45;20.73;;;15.00;;
36651;SDS011;53334;51.976;20.144;2023-01-24T08:28:20;20.50;;;14.13;;
36651;SDS011;53334;51.976;20.144;2023-01-24T08:30:53;21.55;;;15.02;;
36651;SDS011;53334;51.976;20.144;2023-01-24T08:33:29;20.02;;;15.10;;
36651;SDS011;53334;51.976;20.144;2023-01-24T08:36:04;21.92;;;13.63;;
36651;SDS011;53334;51.976;20.144;2023-01-24T08:38:38;21.05;;;15.18;;
36651;SDS011;53334;51.976;20.144;2023-01-24T08:41:11;18.15;;;13.15;;
36651;SDS011;53334;51.976;20.144;2023-01-24T08:43:46;19.73;;;15.05;;
36651;SDS011;53334;51.976;20.144;2023-01-24T08:46:20;18.13;;;15.13;;
36651;SDS011;53334;51.976;20.144;2023-01-24T08:48:53;20.15;;;15.32;;
36651;SDS011;53334;51.976;20.144;2023-01-24T08:51:26;21.35;;;15.07;;
36651;SDS011;53334;51.976;20.144;2023-01-24T08:54:00;17.90;;;14.88;;
36651;SDS011;53334;51.976;20.144;2023-01-24T08:56:33;19.27;;;15.13;;
36651;SDS011;53334;51.976;20.144;2023-01-24T08:59:08;19.23;;;14.50;;
36651;SDS011;53334;51.976;20.144;2023-01-24T09:01:42;19.15;;;14.38;;
36651;SDS011;53334;51.976;20.144;2023-01-24T09:04:15;20.70;;;14.60;;
36651;SDS011;53334;51.976;20.144;2023-01-24T09:06:50;20.80;;;15.73;;
36651;SDS011;53334;51.976;20.144;2023-01-24T09:09:24;19.25;;;15.13;;
36651;SDS011;53334;51.976;20.144;2023-01-24T09:11:57;20.27;;;14.80;;
36651;SDS011;53334;51.976;20.144;2023-01-24T09:14:32;19.05;;;14.35;;
36651;SDS011;53334;51.976;20.144;2023-01-24T09:17:05;17.40;;;13.85;;
36651;SDS011;53334;51.976;20.144;2023-01-24T09:19:39;19.98;;;15.05;;
36651;SDS011;53334;51.976;20.144;2023-01-24T09:22:12;18.48;;;13.52;;
36651;SDS011;53334;51.976;20.144;2023-01-24T09:24:45;19.92;;;15.15;;
36651;SDS011;53334;51.976;20.144;2023-01-24T09:27:19;18.17;;;13.98;;
36651;SDS011;53334;51.976;20.144;2023-01-24T09:29:53;20.75;;;14.77;;
36651;SDS011;53334;51.976;20.144;2023-01-24T09:32:26;19.33;;;14.20;;
36651;SDS011;53334;51.976;20.144;2023-01-24T09:35:00;18.75;;;15.27;;
36651;SDS011;53334;51.976;20.144;2023-01-24T09:40:08;20.83;;;14.55;;
36651;SDS011;53334;51.976;20.144;2023-01-24T09:42:53;19.88;;;14.75;;
36651;SDS011;53334;51.976;20.144;2023-01-24T09:45:35;18.27;;;13.88;;
36651;SDS011;53334;51.976;20.144;2023-01-24T09:48:13;21.77;;;16.38;;
36651;SDS011;53334;51.976;20.144;2023-01-24T09:50:49;21.83;;;15.77;;
36651;SDS011;53334;51.976;20.144;2023-01-24T09:53:24;21.25;;;15.88;;
36651;SDS011;53334;51.976;20.144;2023-01-24T09:56:02;19.75;;;14.55;;
36651;SDS011;53334;51.976;20.144;2023-01-24T09:58:45;21.95;;;15.40;;
36651;SDS011;53334;51.976;20.144;2023-01-24T10:01:27;18.80;;;13.35;;
36651;SDS011;53334;51.976;20.144;2023-01-24T10:04:00;17.95;;;12.77;;
36651;SDS011;53334;51.976;20.144;2023-01-24T10:06:34;18.00;;;13.73;;
36651;SDS011;53334;51.976;20.144;2023-01-24T10:09:11;18.42;;;14.05;;
36651;SDS011;53334;51.976;20.144;2023-01-24T10:11:51;18.30;;;14.90;;
36651;SDS011;53334;51.976;20.144;2023-01-24T10:14:43;20.45;;;15.57;;
36651;SDS011;53334;51.976;20.144;2023-01-24T10:17:32;21.95;;;14.85;;
36651;SDS011;53334;51.976;20.144;2023-01-24T10:20:31;19.42;;;14.80;;
36651;SDS011;53334;51.976;20.144;2023-01-24T10:23:20;19.10;;;14.20;;
36651;SDS011;53334;51.976;20.144;2023-01-24T10:25:58;21.35;;;15.50;;
36651;SDS011;53334;51.976;20.144;2023-01-24T10:28:37;18.73;;;14.25;;
36651;SDS011;53334;51.976;20.144;2023-01-24T10:31:13;17.75;;;13.18;;
36651;SDS011;53334;51.976;20.144;2023-01-24T10:33:51;18.05;;;14.35;;
36651;SDS011;53334;51.976;20.144;2023-01-24T10:36:30;20.35;;;13.73;;
36651;SDS011;53334;51.976;20.144;2023-01-24T10:39:10;22.83;;;16.40;;
36651;SDS011;53334;51.976;20.144;2023-01-24T10:41:44;19.77;;;15.27;;
36651;SDS011;53334;51.976;20.144;2023-01-24T10:44:18;21.52;;;15.30;;
36651;SDS011;53334;51.976;20.144;2023-01-24T10:47:20;16.80;;;13.23;;
36651;SDS011;53334;51.976;20.144;2023-01-24T10:50:13;18.92;;;14.05;;
36651;SDS011;53334;51.976;20.144;2023-01-24T10:52:47;24.02;;;16.45;;
36651;SDS011;53334;51.976;20.144;2023-01-24T10:55:23;19.63;;;14.98;;
36651;SDS011;53334;51.976;20.144;2023-01-24T10:58:03;18.05;;;14.45;;
36651;SDS011;53334;51.976;20.144;2023-01-24T11:00:55;18.75;;;14.20;;
36651;SDS011;53334;51.976;20.144;2023-01-24T11:03:30;20.33;;;14.65;;
36651;SDS011;53334;51.976;20.144;2023-01-24T11:06:10;18.15;;;14.07;;
36651;SDS011;53334;51.976;20.144;2023-01-24T11:09:01;19.95;;;14.65;;
36651;SDS011;53334;51.976;20.144;2023-01-24T11:11:39;19.98;;;15.52;;
36651;SDS011;53334;51.976;20.144;2023-01-24T11:14:16;17.23;;;14.50;;
36651;SDS011;53334;51.976;20.144;2023-01-24T11:16:53;18.60;;;14.45;;
36651;SDS011;53334;51.976;20.144;2023-01-24T11:19:29;19.90;;;14.95;;
36651;SDS011;53334;51.976;20.144;2023-01-24T11:22:20;20.70;;;14.40;;
36651;SDS011;53334;51.976;20.144;2023-01-24T11:24:55;16.17;;;13.82;;
36651;SDS011;53334;51.976;20.144;2023-01-24T11:27:30;18.75;;;14.82;;
36651;SDS011;53334;51.976;20.144;2023-01-24T11:30:05;19.65;;;14.50;;
36651;SDS011;53334;51.976;20.144;2023-01-24T11:32:41;18.30;;;14.73;;
36651;SDS011;53334;51.976;20.144;2023-01-24T11:35:23;20.58;;;15.35;;
36651;SDS011;53334;51.976;20.144;2023-01-24T11:41:04;18.38;;;14.85;;
36651;SDS011;53334;51.976;20.144;2023-01-24T11:43:47;17.52;;;14.23;;
36651;SDS011;53334;51.976;20.144;2023-01-24T11:46:44;17.67;;;14.02;;
36651;SDS011;53334;51.976;20.144;2023-01-24T11:49:36;21.20;;;15.43;;
36651;SDS011;53334;51.976;20.144;2023-01-24T11:52:41;18.95;;;14.77;;
36651;SDS011;53334;51.976;20.144;2023-01-24T11:55:28;18.58;;;14.65;;
36651;SDS011;53334;51.976;20.144;2023-01-24T11:58:13;23.35;;;16.67;;
36651;SDS011;53334;51.976;20.144;2023-01-24T12:01:01;20.95;;;15.57;;
36651;SDS011;53334;51.976;20.144;2023-01-24T12:06:49;19.20;;;14.88;;
36651;SDS011;53334;51.976;20.144;2023-01-24T12:09:29;16.02;;;14.02;;
36651;SDS011;53334;51.976;20.144;2023-01-24T12:12:13;19.38;;;15.10;;
36651;SDS011;53334;51.976;20.144;2023-01-24T12:14:55;18.45;;;14.65;;
36651;SDS011;53334;51.976;20.144;2023-01-24T12:17:45;20.20;;;15.35;;
36651;SDS011;53334;51.976;20.144;2023-01-24T12:20:40;19.15;;;14.18;;
36651;SDS011;53334;51.976;20.144;2023-01-24T12:23:32;20.13;;;15.38;;
36651;SDS011;53334;51.976;20.144;2023-01-24T12:26:13;17.13;;;15.00;;
36651;SDS011;53334;51.976;20.144;2023-01-24T12:28:55;18.73;;;14.30;;
36651;SDS011;53334;51.976;20.144;2023-01-24T12:31:37;22.98;;;15.75;;
36651;SDS011;53334;51.976;20.144;2023-01-24T12:34:22;18.20;;;14.88;;
36651;SDS011;53334;51.976;20.144;2023-01-24T12:37:06;19.80;;;15.00;;
36651;SDS011;53334;51.976;20.144;2023-01-24T12:39:49;20.10;;;15.77;;
36651;SDS011;53334;51.976;20.144;2023-01-24T12:42:31;19.50;;;15.10;;
36651;SDS011;53334;51.976;20.144;2023-01-24T12:45:18;20.15;;;16.75;;
36651;SDS011;53334;51.976;20.144;2023-01-24T12:47:58;21.85;;;15.35;;
36651;SDS011;53334;51.976;20.144;2023-01-24T12:50:39;18.92;;;14.57;;
36651;SDS011;53334;51.976;20.144;2023-01-24T12:53:17;21.63;;;15.90;;
36651;SDS011;53334;51.976;20.144;2023-01-24T12:55:59;20.75;;;16.35;;
36651;SDS011;53334;51.976;20.144;2023-01-24T12:58:39;17.90;;;15.07;;
36651;SDS011;53334;51.976;20.144;2023-01-24T13:01:25;20.67;;;15.77;;
36651;SDS011;53334;51.976;20.144;2023-01-24T13:04:12;19.17;;;14.90;;
36651;SDS011;53334;51.976;20.144;2023-01-24T13:06:54;19.83;;;15.13;;
36651;SDS011;53334;51.976;20.144;2023-01-24T13:09:36;22.25;;;16.35;;
36651;SDS011;53334;51.976;20.144;2023-01-24T13:12:16;22.30;;;16.27;;
36651;SDS011;53334;51.976;20.144;2023-01-24T13:14:54;16.65;;;14.65;;
36651;SDS011;53334;51.976;20.144;2023-01-24T13:17:40;19.95;;;15.50;;
36651;SDS011;53334;51.976;20.144;2023-01-24T13:20:33;16.60;;;14.48;;
36651;SDS011;53334;51.976;20.144;2023-01-24T13:23:34;17.38;;;13.80;;
36651;SDS011;53334;51.976;20.144;2023-01-24T13:29:56;18.38;;;15.57;;
36651;SDS011;53334;51.976;20.144;2023-01-24T13:35:14;19.77;;;15.85;;
36651;SDS011;53334;51.976;20.144;2023-01-24T13:37:50;18.83;;;14.75;;
36651;SDS011;53334;51.976;20.144;2023-01-24T13:40:26;18.52;;;13.98;;
36651;SDS011;53334;51.976;20.144;2023-01-24T13:46:13;18.25;;;14.68;;
36651;SDS011;53334;51.976;20.144;2023-01-24T13:48:55;17.33;;;14.82;;
36651;SDS011;53334;51.976;20.144;2023-01-24T13:51:33;19.35;;;14.93;;
36651;SDS011;53334;51.976;20.144;2023-01-24T13:54:33;21.13;;;15.10;;
36651;SDS011;53334;51.976;20.144;2023-01-24T13:57:10;18.23;;;14.73;;
36651;SDS011;53334;51.976;20.144;2023-01-24T14:00:00;18.38;;;13.98;;
36651;SDS011;53334;51.976;20.144;2023-01-24T14:03:04;16.10;;;13.15;;
36651;SDS011;53334;51.976;20.144;2023-01-24T14:05:53;18.15;;;14.32;;
36651;SDS011;53334;51.976;20.144;2023-01-24T14:08:39;21.00;;;16.08;;
36651;SDS011;53334;51.976;20.144;2023-01-24T14:11:23;17.92;;;14.35;;
36651;SDS011;53334;51.976;20.144;2023-01-24T14:17:45;17.98;;;15.07;;
36651;SDS011;53334;51.976;20.144;2023-01-24T14:20:22;17.20;;;13.55;;
36651;SDS011;53334;51.976;20.144;2023-01-24T14:23:03;19.17;;;15.00;;
36651;SDS011;53334;51.976;20.144;2023-01-24T14:28:24;18.58;;;14.40;;
36651;SDS011;53334;51.976;20.144;2023-01-24T14:31:04;16.98;;;13.63;;
36651;SDS011;53334;51.976;20.144;2023-01-24T14:33:47;17.30;;;13.45;;
36651;SDS011;53334;51.976;20.144;2023-01-24T14:36:27;19.05;;;14.43;;
36651;SDS011;53334;51.976;20.144;2023-01-24T14:42:01;19.60;;;14.75;;
36651;SDS011;53334;51.976;20.144;2023-01-24T14:44:36;17.17;;;13.82;;
36651;SDS011;53334;51.976;20.144;2023-01-24T14:47:16;19.00;;;14.15;;
36651;SDS011;53334;51.976;20.144;2023-01-24T14:49:52;17.13;;;14.07;;
36651;SDS011;53334;51.976;20.144;2023-01-24T14:52:30;17.40;;;13.95;;
36651;SDS011;53334;51.976;20.144;2023-01-24T14:55:20;15.90;;;14.20;;
36651;SDS011;53334;51.976;20.144;2023-01-24T14:58:19;19.50;;;14.60;;
36651;SDS011;53334;51.976;20.144;2023-01-24T15:00:54;19.58;;;14.50;;
36651;SDS011;53334;51.976;20.144;2023-01-24T15:03:29;15.32;;;13.15;;
36651;SDS011;53334;51.976;20.144;2023-01-24T15:06:04;18.55;;;14.98;;
36651;SDS011;53334;51.976;20.144;2023-01-24T15:08:40;17.30;;;14.02;;
36651;SDS011;53334;51.976;20.144;2023-01-24T15:11:18;17.27;;;13.45;;
36651;SDS011;53334;51.976;20.144;2023-01-24T15:13:54;16.75;;;14.02;;
36651;SDS011;53334;51.976;20.144;2023-01-24T15:16:32;17.98;;;13.07;;
36651;SDS011;53334;51.976;20.144;2023-01-24T15:19:10;16.92;;;12.93;;
36651;SDS011;53334;51.976;20.144;2023-01-24T15:21:50;15.50;;;13.15;;
36651;SDS011;53334;51.976;20.144;2023-01-24T15:24:25;14.52;;;12.55;;
36651;SDS011;53334;51.976;20.144;2023-01-24T15:27:11;17.90;;;14.52;;
36651;SDS011;53334;51.976;20.144;2023-01-24T15:30:06;15.10;;;13.13;;
36651;SDS011;53334;51.976;20.144;2023-01-24T15:32:44;21.58;;;14.73;;
36651;SDS011;53334;51.976;20.144;2023-01-24T15:35:26;20.27;;;15.55;;
36651;SDS011;53334;51.976;20.144;2023-01-24T15:38:18;17.55;;;13.30;;
36651;SDS011;53334;51.976;20.144;2023-01-24T15:41:02;18.58;;;14.27;;
36651;SDS011;53334;51.976;20.144;2023-01-24T15:43:49;16.95;;;13.50;;
36651;SDS011;53334;51.976;20.144;2023-01-24T15:46:32;15.10;;;12.65;;
36651;SDS011;53334;51.976;20.144;2023-01-24T15:49:28;17.07;;;14.30;;
36651;SDS011;53334;51.976;20.144;2023-01-24T15:52:13;15.98;;;13.38;;
36651;SDS011;53334;51.976;20.144;2023-01-24T15:54:54;18.20;;;14.07;;
36651;SDS011;53334;51.976;20.144;2023-01-24T15:57:32;16.02;;;13.20;;
36651;SDS011;53334;51.976;20.144;2023-01-24T16:00:22;14.50;;;12.80;;
36651;SDS011;53334;51.976;20.144;2023-01-24T16:02:57;16.13;;;12.73;;
36651;SDS011;53334;51.976;20.144;2023-01-24T16:05:30;15.32;;;12.85;;